sensor_id;sensor_type;location;lat;lon;timestamp;pressure;altitude;pressure_sealevel;temperature;humidity
24302;BME280;12421;49.732;20.078;2022-07-10T00:09:21;96930.02;;;12.92;75.51
24302;BME280;12421;49.732;20.078;2022-07-10T00:19:23;96924.20;;;12.51;76.14
24302;BME280;12421;49.732;20.078;2022-07-10T00:29:26;96925.05;;;12.28;76.56
24302;BME280;12421;49.732;20.078;2022-07-10T00:39:28;96915.98;;;12.17;77.18
24302;BME280;12421;49.732;20.078;2022-07-10T00:49:36;96915.05;;;12.21;77.67
24302;BME280;12421;49.732;20.078;2022-07-10T00:59:36;96895.16;;;12.26;78.40
24302;BME280;12421;49.732;20.078;2022-07-10T01:09:38;96898.34;;;12.44;78.56
24302;BME280;12421;49.732;20.078;2022-07-10T01:19:40;96887.12;;;12.55;78.30
24302;BME280;12421;49.732;20.078;2022-07-10T01:29:46;96886.33;;;12.73;78.54
24302;BME280;12421;49.732;20.078;2022-07-10T01:39:50;96869.33;;;12.86;78.40
24302;BME280;12421;49.732;20.078;2022-07-10T01:49:52;96862.98;;;12.94;78.94
24302;BME280;12421;49.732;20.078;2022-07-10T01:59:56;96861.93;;;13.04;78.52
24302;BME280;12421;49.732;20.078;2022-07-10T02:09:58;96841.66;;;13.05;78.20
24302;BME280;12421;49.732;20.078;2022-07-10T02:20:00;96835.78;;;13.11;78.34
24302;BME280;12421;49.732;20.078;2022-07-10T02:30:05;96837.11;;;13.11;77.91
24302;BME280;12421;49.732;20.078;2022-07-10T02:40:08;96820.88;;;13.07;78.08
24302;BME280;12421;49.732;20.078;2022-07-10T02:50:13;96820.55;;;13.03;78.13
24302;BME280;12421;49.732;20.078;2022-07-10T03:00:15;96797.38;;;12.92;78.27
24302;BME280;12421;49.732;20.078;2022-07-10T03:10:20;96790.48;;;13.07;78.45
24302;BME280;12421;49.732;20.078;2022-07-10T03:20:22;96789.77;;;13.18;78.23
24302;BME280;12421;49.732;20.078;2022-07-10T03:30:28;96790.67;;;13.36;78.03
24302;BME280;12421;49.732;20.078;2022-07-10T03:40:31;96788.62;;;13.66;78.24
24302;BME280;12421;49.732;20.078;2022-07-10T03:50:34;96787.69;;;14.01;78.38
24302;BME280;12421;49.732;20.078;2022-07-10T04:00:36;96766.41;;;14.20;78.62
24302;BME280;12421;49.732;20.078;2022-07-10T04:10:45;96756.96;;;14.44;78.48
24302;BME280;12421;49.732;20.078;2022-07-10T04:20:47;96748.78;;;14.80;77.81
24302;BME280;12421;49.732;20.078;2022-07-10T04:30:49;96745.28;;;15.22;77.55
24302;BME280;12421;49.732;20.078;2022-07-10T04:40:53;96741.65;;;15.39;77.17
24302;BME280;12421;49.732;20.078;2022-07-10T04:50:55;96744.97;;;15.46;77.35
24302;BME280;12421;49.732;20.078;2022-07-10T05:00:57;96743.92;;;15.64;77.05
24302;BME280;12421;49.732;20.078;2022-07-10T05:10:59;96732.58;;;15.72;77.04
24302;BME280;12421;49.732;20.078;2022-07-10T05:21:01;96735.34;;;15.94;77.09
24302;BME280;12421;49.732;20.078;2022-07-10T05:31:03;96733.42;;;16.10;77.03
24302;BME280;12421;49.732;20.078;2022-07-10T05:41:07;96729.49;;;16.33;76.31
24302;BME280;12421;49.732;20.078;2022-07-10T05:51:09;96726.20;;;16.38;75.04
24302;BME280;12421;49.732;20.078;2022-07-10T06:01:12;96723.17;;;16.49;74.92
24302;BME280;12421;49.732;20.078;2022-07-10T06:11:14;96726.20;;;16.51;74.59
24302;BME280;12421;49.732;20.078;2022-07-10T06:21:23;96726.77;;;16.48;74.47
24302;BME280;12421;49.732;20.078;2022-07-10T06:31:25;96718.43;;;16.92;75.38
24302;BME280;12421;49.732;20.078;2022-07-10T06:41:27;96715.78;;;17.35;74.09
24302;BME280;12421;49.732;20.078;2022-07-10T06:51:29;96705.23;;;17.22;72.07
24302;BME280;12421;49.732;20.078;2022-07-10T07:01:31;96726.98;;;16.65;71.31
24302;BME280;12421;49.732;20.078;2022-07-10T07:11:33;96736.60;;;16.69;72.30
24302;BME280;12421;49.732;20.078;2022-07-10T07:21:36;96742.91;;;17.23;70.86
24302;BME280;12421;49.732;20.078;2022-07-10T07:31:58;96746.49;;;17.96;70.12
24302;BME280;12421;49.732;20.078;2022-07-10T07:42:01;96749.47;;;17.79;67.12
24302;BME280;12421;49.732;20.078;2022-07-10T07:52:03;96741.19;;;18.27;67.43
24302;BME280;12421;49.732;20.078;2022-07-10T08:02:06;96724.73;;;19.04;62.88
24302;BME280;12421;49.732;20.078;2022-07-10T08:12:08;96724.73;;;19.04;62.88
24302;BME280;12421;49.732;20.078;2022-07-10T08:22:32;96745.94;;;19.45;60.41
24302;BME280;12421;49.732;20.078;2022-07-10T08:32:57;96753.49;;;19.81;58.62
24302;BME280;12421;49.732;20.078;2022-07-10T08:42:59;96756.47;;;19.48;59.83
24302;BME280;12421;49.732;20.078;2022-07-10T08:53:11;96768.67;;;19.53;59.18
24302;BME280;12421;49.732;20.078;2022-07-10T09:03:21;96765.11;;;19.80;57.70
24302;BME280;12421;49.732;20.078;2022-07-10T09:13:23;96761.80;;;20.19;58.26
24302;BME280;12421;49.732;20.078;2022-07-10T09:23:26;96756.64;;;19.89;56.53
24302;BME280;12421;49.732;20.078;2022-07-10T09:33:29;96769.78;;;19.31;58.10
24302;BME280;12421;49.732;20.078;2022-07-10T09:44:03;96771.40;;;18.57;61.95
24302;BME280;12421;49.732;20.078;2022-07-10T09:54:08;96781.60;;;18.96;63.07
24302;BME280;12421;49.732;20.078;2022-07-10T10:04:26;96777.64;;;19.61;62.24
24302;BME280;12421;49.732;20.078;2022-07-10T10:14:29;96761.89;;;20.34;60.72
24302;BME280;12421;49.732;20.078;2022-07-10T10:24:34;96758.73;;;20.52;58.52
24302;BME280;12421;49.732;20.078;2022-07-10T10:34:43;96748.23;;;20.56;61.24
24302;BME280;12421;49.732;20.078;2022-07-10T10:44:50;96744.77;;;20.95;56.61
24302;BME280;12421;49.732;20.078;2022-07-10T10:55:54;96751.20;;;20.67;55.70
24302;BME280;12421;49.732;20.078;2022-07-10T11:41:59;96724.06;;;21.07;52.39
24302;BME280;12421;49.732;20.078;2022-07-10T12:14:41;96739.31;;;19.70;50.96
24302;BME280;12421;49.732;20.078;2022-07-10T12:35:59;96724.98;;;20.24;49.75
24302;BME280;12421;49.732;20.078;2022-07-10T12:56:36;96748.73;;;19.69;48.65
24302;BME280;12421;49.732;20.078;2022-07-10T13:06:48;96750.97;;;19.51;50.36
24302;BME280;12421;49.732;20.078;2022-07-10T13:28:21;96744.98;;;19.73;50.31
24302;BME280;12421;49.732;20.078;2022-07-10T13:49:03;96755.58;;;20.18;48.00
24302;BME280;12421;49.732;20.078;2022-07-10T13:59:05;96752.67;;;20.48;48.09
24302;BME280;12421;49.732;20.078;2022-07-10T14:09:13;96759.44;;;20.38;48.68
24302;BME280;12421;49.732;20.078;2022-07-10T14:30:46;96778.25;;;19.93;50.79
24302;BME280;12421;49.732;20.078;2022-07-10T14:52:42;96789.70;;;19.51;49.51
24302;BME280;12421;49.732;20.078;2022-07-10T15:14:03;96772.37;;;19.95;48.15
24302;BME280;12421;49.732;20.078;2022-07-10T15:24:06;96797.45;;;19.65;47.76
24302;BME280;12421;49.732;20.078;2022-07-10T15:34:10;96773.17;;;19.70;48.54
24302;BME280;12421;49.732;20.078;2022-07-10T15:44:17;96778.22;;;19.49;46.87
24302;BME280;12421;49.732;20.078;2022-07-10T15:54:24;96771.05;;;19.41;46.48
24302;BME280;12421;49.732;20.078;2022-07-10T16:04:40;96780.97;;;19.39;46.63
24302;BME280;12421;49.732;20.078;2022-07-10T16:14:46;96791.81;;;19.15;46.62
24302;BME280;12421;49.732;20.078;2022-07-10T16:24:48;96791.48;;;18.84;48.54
24302;BME280;12421;49.732;20.078;2022-07-10T16:35:09;96800.39;;;18.93;48.60
24302;BME280;12421;49.732;20.078;2022-07-10T16:45:11;96806.59;;;18.75;50.83
24302;BME280;12421;49.732;20.078;2022-07-10T16:55:15;96815.84;;;18.27;51.08
24302;BME280;12421;49.732;20.078;2022-07-10T17:05:17;96815.52;;;17.92;51.56
24302;BME280;12421;49.732;20.078;2022-07-10T17:15:20;96830.11;;;17.94;51.53
24302;BME280;12421;49.732;20.078;2022-07-10T17:25:23;96835.33;;;17.64;51.67
24302;BME280;12421;49.732;20.078;2022-07-10T17:35:26;96834.54;;;17.39;51.79
24302;BME280;12421;49.732;20.078;2022-07-10T17:45:28;96847.79;;;17.06;52.59
24302;BME280;12421;49.732;20.078;2022-07-10T17:55:30;96859.60;;;16.63;53.86
24302;BME280;12421;49.732;20.078;2022-07-10T18:05:33;96855.96;;;16.39;55.68
24302;BME280;12421;49.732;20.078;2022-07-10T18:15:36;96870.75;;;16.08;56.64
24302;BME280;12421;49.732;20.078;2022-07-10T18:25:38;96866.70;;;15.84;57.89
24302;BME280;12421;49.732;20.078;2022-07-10T18:35:56;96881.77;;;15.70;59.64
24302;BME280;12421;49.732;20.078;2022-07-10T18:46:08;96884.39;;;15.57;60.02
24302;BME280;12421;49.732;20.078;2022-07-10T18:56:13;96888.68;;;15.47;60.15
24302;BME280;12421;49.732;20.078;2022-07-10T19:06:19;96903.48;;;15.24;59.64
24302;BME280;12421;49.732;20.078;2022-07-10T19:16:30;96917.16;;;14.95;59.48
24302;BME280;12421;49.732;20.078;2022-07-10T19:26:58;96931.14;;;14.53;59.96
24302;BME280;12421;49.732;20.078;2022-07-10T19:37:04;96931.63;;;14.16;61.88
24302;BME280;12421;49.732;20.078;2022-07-10T19:47:09;96940.84;;;13.82;62.97
24302;BME280;12421;49.732;20.078;2022-07-10T19:57:11;96957.28;;;13.77;64.34
24302;BME280;12421;49.732;20.078;2022-07-10T20:07:14;96951.06;;;13.78;65.63
24302;BME280;12421;49.732;20.078;2022-07-10T20:17:17;96955.07;;;13.77;65.84
24302;BME280;12421;49.732;20.078;2022-07-10T20:27:19;96964.92;;;13.89;66.55
24302;BME280;12421;49.732;20.078;2022-07-10T20:37:21;96970.23;;;14.07;66.88
24302;BME280;12421;49.732;20.078;2022-07-10T20:47:42;96966.45;;;14.00;66.55
24302;BME280;12421;49.732;20.078;2022-07-10T20:57:44;96965.61;;;13.98;67.33
24302;BME280;12421;49.732;20.078;2022-07-10T21:07:46;96966.56;;;13.95;67.06
24302;BME280;12421;49.732;20.078;2022-07-10T21:17:49;96974.51;;;13.95;66.54
24302;BME280;12421;49.732;20.078;2022-07-10T21:27:51;96958.09;;;13.79;66.33
24302;BME280;12421;49.732;20.078;2022-07-10T21:37:53;96961.44;;;13.68;66.96
24302;BME280;12421;49.732;20.078;2022-07-10T21:47:56;96952.98;;;13.72;67.36
24302;BME280;12421;49.732;20.078;2022-07-10T21:57:58;96946.69;;;13.77;66.68
24302;BME280;12421;49.732;20.078;2022-07-10T22:08:00;96947.39;;;13.65;67.47
24302;BME280;12421;49.732;20.078;2022-07-10T22:28:54;96952.36;;;13.61;68.60
24302;BME280;12421;49.732;20.078;2022-07-10T22:39:18;96951.36;;;13.66;68.49
24302;BME280;12421;49.732;20.078;2022-07-10T22:49:31;96952.25;;;13.65;68.73
24302;BME280;12421;49.732;20.078;2022-07-10T22:59:33;96944.09;;;13.55;69.28
24302;BME280;12421;49.732;20.078;2022-07-10T23:09:45;96939.34;;;13.50;69.75
24302;BME280;12421;49.732;20.078;2022-07-10T23:19:57;96940.56;;;13.56;70.28
24302;BME280;12421;49.732;20.078;2022-07-10T23:29:59;96938.20;;;13.62;71.19
24302;BME280;12421;49.732;20.078;2022-07-10T23:40:01;96938.20;;;13.62;71.19
24302;BME280;12421;49.732;20.078;2022-07-10T23:50:05;96929.98;;;13.56;71.72
